ENSH

Details ICAO ENSH (SVJ)
Name Svolvaer Helle
Region Norway
Timezone Unknown
Plans Departing 39
Arriving 38
Stats Elevation 29 ft / 9 m (AMSL)
Location 68.242600° 14.668600°
Runways 1
Magnetic Variation 6.361° E
Sunrise 2019-05-20 00:12:58 UTC / 2019-05-20 00:12:58 Local
Sunset 2019-05-20 21:45:32 UTC / 2019-05-20 21:45:32 Local
Advertisement - Login to hide

Runways

ID Width Length Bearing (true/mag) Surface Threshold Overrun Markings Lighting
01 98 ft / 30 m 3,095 ft / 943 m 12.29° / 5.93° ASPHALT 223 ft / 68 m 0 ft / 0 m APP CENTERLINE EDGE THRESHOLD MALSF
19 98 ft / 30 m 3,095 ft / 943 m 192.29° / 185.93° ASPHALT 233 ft / 71 m 0 ft / 0 m APP CENTERLINE EDGE THRESHOLD MALSF

Map

Weather


0- 5 10 15 20 25 30 35+ Temperature / °C

Clouds and Precipitation
Forecast for 2019-05-20 18:00 UTC. Updated an hour ago

Ground ~20,000 ft ~40,000 ft Winds

METAR

ENSH 201620Z 21007KT CAVOK 15/06 Q1015 RMK WIND 150FT 18006KT

TAF

Not found

Frequencies

Approach 126.45 MHz Helle Approach
Warning: Do not use this data for real-world aviation or navigation. No guarantee of current accuracy is given.